Scott Air Force Base, IL

6:18 AM CDT on September 03, 2015 (GMT -0500)
Scott Air Force Base-Midamerica | | Change Station
CLOSE
Current Station
Airport
Location: Belleville,
Elevation: 456 ft
Nearby Weather Stations

Elev 456 ft 38.55 °N, 89.84 °W | Updated 15 minutes ago

Clear
Clear
70 °F
Feels Like 70 °F
N
2
Wind Variable Wind from ESE

Today
High -- | Low -- °F
--% Chance of Precip.
Yesterday
High -- | Low -- °F
Precip. -- in
6:30 AM 7:26 PM
Waning Gibbous, 71% visible
Pressure 30.00 in
Visibility 9.0 miles
Clouds Clear
Dew Point 70 °F
Humidity 100%
Rainfall 0.00 in
Snow Depth Not available.
UV 0 out of 12
Pollen 11.20 out of 12
Air Quality Not available.
Flu Activity Not available.
SPECI KBLV 031103Z 12002KT 9SM R14L/5500FT CLR 21/21 A3000 RMK AO2A
Pressure 30.00 in
Visibility 9.0 miles
Clouds Clear
Dew Point 70 °F
Humidity 100%
Rainfall 0.00 in
Snow Depth Not available.
UV 0 out of 12
Pollen 11.20 out of 12
Air Quality Not available.
Flu Activity Not available.
SPECI KBLV 031103Z 12002KT 9SM R14L/5500FT CLR 21/21 A3000 RMK AO2A

10-Day Weather Forecast

×

Almanac

Astronomy

Sep. 03, 2015 Rise Set
Actual Time
Civil Twilight
Nautical Twilight
Astronomical Twilight
Moon
Length of Visible Light
Length of Day
Tomorrow will be .
, % of the Moon is Illuminated

Today's Extremes

State Highs State Lows

Community

WunderPhotos

Upload Photos

1,851,933 photos uploaded!

WunderBlogs® & News

Nearby

Air Quality

  Air Quality AQ Index Pollutant
Not available.

Snow Depth

Station Depth Elevation

Earthquake Activity

City Distance Mag. Time & Date
Minimum magnitude displayed is 2.5.

Coastal Water Temperatures

Place Temperature

Stations

Nearby Weather Stations

Station Location Temp. Windchill Dew Point Humidity Wind Precip. Elev Updated Type